createdAt,value
2018-04-27T00:01:53.167Z,10.91
2018-04-27T00:04:20.683Z,10.79
2018-04-27T00:06:48.169Z,11.03
2018-04-27T00:09:15.680Z,10.95
2018-04-27T00:11:43.232Z,10.83
2018-04-27T00:14:10.711Z,10.82
2018-04-27T00:16:38.198Z,10.97
2018-04-27T00:19:05.711Z,10.92
2018-04-27T00:21:33.251Z,10.87
2018-04-27T00:24:00.774Z,10.81
2018-04-27T00:26:28.274Z,10.92
2018-04-27T00:28:55.784Z,10.91
2018-04-27T00:31:23.374Z,10.84
2018-04-27T00:33:50.878Z,10.84
2018-04-27T00:36:18.378Z,10.72
2018-04-27T00:38:45.848Z,10.70
2018-04-27T00:41:13.407Z,10.58
2018-04-27T00:43:40.893Z,10.64
2018-04-27T00:46:08.474Z,10.61
2018-04-27T00:48:35.953Z,10.43
2018-04-27T00:51:03.866Z,10.56
2018-04-27T00:53:31.321Z,10.62
2018-04-27T00:55:58.804Z,10.58
2018-04-27T00:58:26.254Z,10.69
2018-04-27T01:00:53.710Z,10.74
2018-04-27T01:03:21.193Z,10.72
2018-04-27T01:05:48.648Z,10.65
2018-04-27T01:08:16.130Z,10.61
2018-04-27T01:10:43.663Z,10.54
2018-04-27T01:13:11.226Z,10.48
2018-04-27T01:15:38.680Z,10.55
2018-04-27T01:18:06.570Z,10.53
2018-04-27T01:20:34.035Z,10.59
2018-04-27T01:23:01.491Z,10.57
2018-04-27T01:25:28.958Z,10.49
2018-04-27T01:27:56.406Z,10.43
2018-04-27T01:30:23.865Z,10.39
2018-04-27T01:32:51.352Z,10.25
2018-04-27T01:35:18.812Z,10.27
2018-04-27T01:37:46.287Z,10.42
2018-04-27T01:40:13.742Z,10.15
2018-04-27T01:42:41.212Z,9.98
2018-04-27T01:45:09.354Z,9.89
2018-04-27T01:47:36.798Z,9.81
2018-04-27T01:50:04.269Z,9.70
2018-04-27T01:52:31.702Z,9.71
2018-04-27T01:54:59.157Z,9.62
2018-04-27T01:57:26.607Z,9.51
2018-04-27T01:59:54.069Z,9.41
2018-04-27T02:02:21.509Z,9.31
2018-04-27T02:04:48.951Z,9.16
2018-04-27T02:07:16.407Z,9.12
2018-04-27T02:09:43.854Z,9.08
2018-04-27T02:12:11.335Z,8.99
2018-04-27T02:14:38.795Z,8.94
2018-04-27T02:17:06.237Z,8.96
2018-04-27T02:19:33.689Z,8.98
2018-04-27T02:22:01.150Z,9.06
2018-04-27T02:24:28.604Z,9.09
2018-04-27T02:26:56.079Z,9.15
2018-04-27T02:29:23.513Z,9.15
2018-04-27T02:31:50.954Z,9.10
2018-04-27T02:34:18.424Z,9.13
2018-04-27T02:36:45.872Z,9.12
2018-04-27T02:39:13.308Z,9.10
2018-04-27T02:41:40.766Z,9.04
2018-04-27T02:44:08.619Z,8.99
2018-04-27T02:46:36.069Z,8.91
2018-04-27T02:49:03.535Z,8.93
2018-04-27T02:51:30.993Z,9.10
2018-04-27T02:53:58.458Z,9.11
2018-04-27T02:56:25.906Z,9.21
2018-04-27T02:58:53.412Z,9.18
2018-04-27T03:01:20.860Z,9.07
2018-04-27T03:03:49.737Z,8.96
2018-04-27T03:06:17.203Z,8.88
2018-04-27T03:08:44.653Z,8.82
2018-04-27T03:11:12.117Z,8.79
2018-04-27T03:13:39.577Z,8.84
2018-04-27T03:16:07.032Z,8.69
2018-04-27T03:18:34.481Z,8.58
2018-04-27T03:21:01.937Z,8.45
2018-04-27T03:23:29.397Z,8.33
2018-04-27T03:25:57.517Z,8.26
2018-04-27T03:28:24.983Z,8.18
2018-04-27T03:30:52.444Z,8.17
2018-04-27T03:33:19.900Z,8.14
2018-04-27T03:35:47.397Z,8.13
2018-04-27T03:38:14.853Z,8.15
2018-04-27T03:40:42.321Z,8.19
2018-04-27T03:43:09.810Z,8.16
2018-04-27T03:45:37.261Z,8.17
2018-04-27T03:48:04.726Z,8.19
2018-04-27T03:50:32.177Z,8.19
2018-04-27T03:52:59.634Z,8.18
2018-04-27T03:55:27.078Z,8.20
2018-04-27T03:57:54.520Z,8.28
2018-04-27T04:00:33.762Z,8.39
2018-04-27T04:03:12.890Z,8.41
2018-04-27T04:05:40.399Z,8.44
2018-04-27T04:08:07.861Z,8.51
2018-04-27T04:10:35.330Z,8.62
2018-04-27T04:13:02.797Z,8.72
2018-04-27T04:15:30.241Z,8.81
2018-04-27T04:17:57.689Z,8.91
2018-04-27T04:20:25.165Z,8.97
2018-04-27T04:22:52.619Z,9.07
2018-04-27T04:25:20.114Z,9.24
2018-04-27T04:27:47.572Z,9.31
2018-04-27T04:30:15.109Z,9.38
2018-04-27T04:32:42.631Z,9.49
2018-04-27T04:35:10.092Z,9.66
2018-04-27T04:37:37.553Z,9.81
2018-04-27T04:40:05.033Z,10.02
2018-04-27T04:42:32.618Z,10.01
2018-04-27T04:45:00.130Z,10.06
2018-04-27T04:47:27.601Z,10.22
2018-04-27T04:49:55.176Z,10.34
2018-04-27T04:52:23.222Z,10.41
2018-04-27T04:54:50.775Z,10.42
2018-04-27T04:57:18.269Z,10.54
2018-04-27T04:59:45.721Z,10.57
2018-04-27T05:02:13.198Z,10.61
2018-04-27T05:04:40.658Z,10.75
2018-04-27T05:07:08.101Z,10.83
2018-04-27T05:09:35.576Z,10.95
2018-04-27T05:12:03.042Z,11.01
2018-04-27T05:14:30.546Z,11.07
2018-04-27T05:16:58.036Z,11.18
2018-04-27T05:19:25.481Z,11.28
2018-04-27T05:21:52.946Z,11.38
2018-04-27T05:24:20.515Z,11.46
2018-04-27T05:26:47.958Z,11.57
2018-04-27T05:29:15.435Z,11.63
2018-04-27T05:31:42.969Z,11.73
2018-04-27T05:34:10.447Z,11.92
2018-04-27T05:36:37.930Z,11.95
2018-04-27T05:39:06.323Z,12.03
2018-04-27T05:41:33.814Z,12.13
2018-04-27T05:44:01.294Z,12.29
2018-04-27T05:46:28.805Z,12.38
2018-04-27T05:48:56.396Z,12.42
2018-04-27T05:51:23.793Z,12.52
2018-04-27T05:53:51.248Z,12.62
2018-04-27T05:56:18.783Z,12.84
2018-04-27T05:58:46.270Z,12.92
2018-04-27T06:01:13.750Z,12.93
2018-04-27T06:03:53.001Z,12.99
2018-04-27T06:06:20.452Z,13.02
2018-04-27T06:08:47.901Z,13.16
2018-04-27T06:11:15.399Z,13.28
2018-04-27T06:13:42.860Z,13.35
2018-04-27T06:16:10.446Z,13.43
2018-04-27T06:18:37.879Z,13.53
2018-04-27T06:21:06.340Z,13.66
2018-04-27T06:23:33.816Z,13.66
2018-04-27T06:26:01.269Z,13.63
2018-04-27T06:28:28.777Z,13.66
2018-04-27T06:30:56.235Z,13.75
2018-04-27T06:33:23.722Z,13.85
2018-04-27T06:35:51.186Z,13.92
2018-04-27T06:38:18.643Z,13.97
2018-04-27T06:40:46.114Z,14.02
2018-04-27T06:43:13.610Z,14.11
2018-04-27T06:45:41.067Z,14.13
2018-04-27T06:48:08.564Z,14.20
2018-04-27T06:50:36.031Z,14.23
2018-04-27T06:53:03.487Z,14.41
2018-04-27T06:55:30.972Z,14.48
2018-04-27T06:57:58.445Z,14.60
2018-04-27T07:00:25.910Z,14.68
2018-04-27T07:02:53.387Z,14.84
2018-04-27T07:05:20.922Z,14.88
2018-04-27T07:07:48.359Z,14.89
2018-04-27T07:10:15.828Z,15.03
2018-04-27T07:12:43.357Z,15.07
2018-04-27T07:15:10.844Z,15.08
2018-04-27T07:17:38.278Z,15.10
2018-04-27T07:20:05.763Z,15.11
2018-04-27T07:22:33.295Z,15.22
2018-04-27T07:25:00.751Z,15.44
2018-04-27T07:27:28.238Z,15.60
2018-04-27T07:29:55.706Z,15.68
2018-04-27T07:32:23.177Z,15.87
2018-04-27T07:34:50.670Z,16.03
2018-04-27T07:37:18.166Z,16.18
2018-04-27T07:39:45.668Z,16.38
2018-04-27T07:42:13.231Z,16.36
2018-04-27T07:44:40.733Z,16.47
2018-04-27T07:47:08.211Z,16.63
2018-04-27T07:49:35.746Z,16.84
2018-04-27T07:52:03.231Z,16.81
2018-04-27T07:54:30.711Z,16.98
2018-04-27T07:56:58.194Z,17.08
2018-04-27T07:59:25.674Z,17.00
2018-04-27T08:01:53.248Z,17.18
2018-04-27T08:04:20.713Z,17.23
2018-04-27T08:06:48.237Z,17.40
2018-04-27T08:09:15.723Z,17.46
2018-04-27T08:11:43.239Z,17.46
2018-04-27T08:14:10.748Z,17.43
2018-04-27T08:16:39.126Z,17.66
2018-04-27T08:19:07.394Z,17.55
2018-04-27T08:21:34.888Z,17.35
2018-04-27T08:24:02.394Z,17.17
2018-04-27T08:26:29.952Z,17.27
2018-04-27T08:29:05.137Z,17.37
2018-04-27T08:31:32.684Z,17.36
2018-04-27T08:34:00.205Z,17.36
2018-04-27T08:36:27.676Z,17.47
2018-04-27T08:38:55.174Z,17.44
2018-04-27T08:41:22.649Z,17.39
2018-04-27T08:43:50.188Z,17.56
2018-04-27T08:46:17.626Z,17.49
2018-04-27T08:48:45.088Z,17.36
2018-04-27T08:51:12.591Z,17.22
2018-04-27T08:53:40.130Z,17.27
2018-04-27T08:56:07.655Z,17.20
2018-04-27T08:58:35.154Z,17.06
2018-04-27T09:01:02.651Z,17.00
2018-04-27T09:03:30.115Z,17.02
2018-04-27T09:05:57.579Z,17.21
2018-04-27T09:08:25.173Z,17.29
2018-04-27T09:10:52.695Z,17.35
2018-04-27T09:13:20.818Z,17.35
2018-04-27T09:15:49.362Z,17.43
2018-04-27T09:18:16.851Z,17.35
2018-04-27T09:20:44.322Z,17.42
2018-04-27T09:23:11.784Z,17.56
2018-04-27T09:25:39.445Z,17.72
2018-04-27T09:28:06.976Z,17.91
2018-04-27T09:30:34.438Z,17.89
2018-04-27T09:33:01.907Z,18.00
2018-04-27T09:35:29.365Z,18.14
2018-04-27T09:37:56.906Z,18.12
2018-04-27T09:40:24.355Z,18.18
2018-04-27T09:42:51.836Z,18.22
2018-04-27T09:45:19.338Z,18.34
2018-04-27T09:47:46.844Z,18.34
2018-04-27T09:50:14.433Z,18.43
2018-04-27T09:52:41.908Z,18.56
2018-04-27T09:55:09.359Z,18.61
2018-04-27T09:57:36.827Z,18.76
2018-04-27T10:00:04.366Z,18.85
2018-04-27T10:02:31.855Z,19.08
2018-04-27T10:04:59.344Z,19.26
2018-04-27T10:07:26.908Z,19.17
2018-04-27T10:09:54.402Z,19.37
2018-04-27T10:12:21.901Z,19.32
2018-04-27T10:14:49.380Z,19.20
2018-04-27T10:17:16.902Z,19.18
2018-04-27T10:19:44.375Z,19.21
2018-04-27T10:22:11.863Z,19.20
2018-04-27T10:24:39.366Z,19.34
2018-04-27T10:27:06.903Z,19.48
2018-04-27T10:29:34.420Z,19.70
2018-04-27T10:32:01.919Z,19.69
2018-04-27T10:34:29.458Z,19.65
2018-04-27T10:36:56.929Z,19.75
2018-04-27T10:39:24.500Z,19.77
2018-04-27T10:41:51.997Z,19.76
2018-04-27T10:44:19.500Z,19.84
2018-04-27T10:46:46.980Z,20.16
2018-04-27T10:49:14.549Z,20.37
2018-04-27T10:51:42.039Z,20.41
2018-04-27T10:54:09.666Z,20.49
2018-04-27T10:56:37.185Z,20.63
2018-04-27T10:59:04.662Z,20.70
2018-04-27T11:01:32.236Z,20.76
2018-04-27T11:03:59.753Z,20.75
2018-04-27T11:06:27.316Z,20.54
2018-04-27T11:08:54.815Z,20.63
2018-04-27T11:11:22.408Z,20.74
2018-04-27T11:13:49.978Z,20.81
2018-04-27T11:16:17.510Z,20.86
2018-04-27T11:18:45.494Z,20.93
2018-04-27T11:21:13.315Z,21.01
2018-04-27T11:23:41.566Z,21.05
2018-04-27T11:26:09.093Z,21.11
2018-04-27T11:28:36.581Z,21.01
2018-04-27T11:31:04.050Z,21.07
2018-04-27T11:33:31.547Z,21.03
2018-04-27T11:35:59.102Z,21.17
2018-04-27T11:38:26.594Z,21.18
2018-04-27T11:40:55.444Z,21.09
2018-04-27T11:43:22.921Z,21.24
2018-04-27T11:45:51.406Z,21.36
2018-04-27T11:48:18.906Z,21.37
2018-04-27T11:50:46.390Z,21.41
2018-04-27T11:53:13.888Z,21.50
2018-04-27T11:55:41.382Z,21.53
2018-04-27T11:58:08.995Z,21.66
2018-04-27T12:00:36.560Z,21.68
2018-04-27T12:03:04.050Z,21.76
2018-04-27T12:05:31.541Z,21.85
2018-04-27T12:07:59.075Z,21.80
2018-04-27T12:10:26.638Z,22.00
2018-04-27T12:12:54.131Z,22.20
2018-04-27T12:15:21.633Z,22.25
2018-04-27T12:17:49.090Z,22.47
2018-04-27T12:20:16.584Z,22.44
2018-04-27T12:22:44.086Z,22.67
2018-04-27T12:25:11.566Z,22.88
2018-04-27T12:27:39.060Z,22.72
2018-04-27T12:30:06.603Z,22.88
2018-04-27T12:32:34.081Z,22.85
2018-04-27T12:35:01.581Z,22.75
2018-04-27T12:37:29.078Z,22.91
2018-04-27T12:39:56.575Z,23.15
2018-04-27T12:42:24.085Z,23.26
2018-04-27T12:44:51.602Z,23.58
2018-04-27T12:47:19.146Z,23.51
2018-04-27T12:49:46.658Z,23.76
2018-04-27T12:52:14.164Z,23.89
2018-04-27T12:54:42.615Z,24.20
2018-04-27T12:57:10.120Z,24.39
2018-04-27T12:59:37.598Z,24.47
2018-04-27T13:02:05.075Z,24.29
2018-04-27T13:04:32.542Z,24.38
2018-04-27T13:07:00.043Z,24.64
2018-04-27T13:09:27.517Z,24.64
2018-04-27T13:11:55.039Z,24.65
2018-04-27T13:14:22.530Z,24.69
2018-04-27T13:16:50.067Z,24.28
2018-04-27T13:19:17.539Z,24.16
2018-04-27T13:21:44.999Z,24.53
2018-04-27T13:24:12.549Z,24.93
2018-04-27T13:26:40.071Z,25.12
2018-04-27T13:29:07.576Z,25.09
2018-04-27T13:31:35.084Z,25.06
2018-04-27T13:34:02.560Z,24.89
2018-04-27T13:36:30.028Z,25.14
2018-04-27T13:39:15.001Z,25.19
2018-04-27T13:41:43.850Z,25.56
2018-04-27T13:44:11.352Z,25.70
2018-04-27T13:46:38.869Z,25.76
2018-04-27T13:49:06.336Z,25.70
2018-04-27T13:51:33.841Z,25.70
2018-04-27T13:54:01.377Z,25.67
2018-04-27T13:56:28.919Z,25.46
2018-04-27T13:58:56.405Z,25.62
2018-04-27T14:01:23.917Z,25.58
2018-04-27T14:03:52.360Z,26.06
2018-04-27T14:06:19.847Z,25.90
2018-04-27T14:08:52.062Z,26.43
2018-04-27T14:11:19.679Z,26.96
2018-04-27T14:13:47.249Z,27.48
2018-04-27T14:16:14.763Z,27.79
2018-04-27T14:18:42.280Z,28.55
2018-04-27T14:21:09.773Z,29.53
2018-04-27T14:23:37.263Z,30.48
2018-04-27T14:26:04.747Z,30.37
2018-04-27T14:28:32.225Z,30.41
2018-04-27T14:30:59.687Z,30.57
2018-04-27T14:33:27.164Z,30.69
2018-04-27T14:35:54.652Z,31.15
2018-04-27T14:38:22.113Z,30.43
2018-04-27T14:40:49.621Z,30.07
2018-04-27T14:43:17.099Z,30.94
2018-04-27T14:45:44.591Z,31.61
2018-04-27T14:48:12.151Z,32.02
2018-04-27T14:50:41.308Z,31.63
2018-04-27T14:53:08.830Z,31.84
2018-04-27T14:55:36.437Z,31.59
2018-04-27T14:58:04.000Z,31.68
2018-04-27T15:00:31.557Z,31.85
2018-04-27T15:02:59.237Z,31.76
2018-04-27T15:05:26.733Z,32.05
2018-04-27T15:07:54.321Z,32.22
2018-04-27T15:10:22.185Z,32.04
2018-04-27T15:12:49.777Z,32.52
2018-04-27T15:15:17.478Z,31.83
2018-04-27T15:17:45.046Z,32.04
2018-04-27T15:20:12.576Z,32.14
2018-04-27T15:22:40.066Z,32.84
2018-04-27T15:25:07.593Z,32.46
2018-04-27T15:27:35.314Z,32.70
2018-04-27T15:30:02.830Z,33.02
2018-04-27T15:32:30.367Z,32.09
2018-04-27T15:34:57.884Z,32.29
2018-04-27T15:37:25.444Z,32.06
2018-04-27T15:39:52.999Z,33.02
2018-04-27T15:42:20.601Z,33.91
2018-04-27T15:44:48.124Z,34.25
2018-04-27T15:47:15.648Z,33.81
2018-04-27T15:49:43.219Z,33.64
2018-04-27T15:52:10.807Z,33.85
2018-04-27T15:54:38.347Z,33.23
2018-04-27T15:57:05.955Z,33.28
2018-04-27T15:59:33.518Z,32.82
2018-04-27T16:02:01.100Z,33.29
2018-04-27T16:04:28.730Z,33.52
2018-04-27T16:06:57.312Z,33.74
2018-04-27T16:09:25.107Z,33.72
2018-04-27T16:11:52.692Z,33.26
2018-04-27T16:14:20.254Z,33.01
2018-04-27T16:16:47.819Z,32.71
2018-04-27T16:19:15.336Z,31.97
2018-04-27T16:21:42.897Z,31.85
2018-04-27T16:24:10.459Z,32.03
2018-04-27T16:26:38.110Z,32.83
2018-04-27T16:29:05.710Z,32.84
2018-04-27T16:31:33.404Z,32.07
2018-04-27T16:34:01.012Z,31.88
2018-04-27T16:36:29.123Z,31.84
2018-04-27T16:38:56.655Z,31.15
2018-04-27T16:41:24.768Z,31.75
2018-04-27T16:43:52.450Z,31.68
2018-04-27T16:46:19.967Z,31.63
2018-04-27T16:48:47.528Z,31.17
2018-04-27T16:51:15.827Z,31.77
2018-04-27T16:53:43.335Z,30.89
2018-04-27T16:56:10.857Z,30.75
2018-04-27T16:58:38.372Z,29.92
2018-04-27T17:01:05.902Z,29.80
2018-04-27T17:03:33.471Z,29.69
2018-04-27T17:06:06.778Z,29.39
2018-04-27T17:08:34.366Z,29.51
2018-04-27T17:11:01.933Z,29.44
2018-04-27T17:13:29.493Z,28.98
2018-04-27T17:15:57.033Z,28.27
2018-04-27T17:18:25.774Z,27.79
2018-04-27T17:20:53.344Z,27.93
2018-04-27T17:23:20.853Z,27.60
2018-04-27T17:25:48.412Z,27.22
2018-04-27T17:28:15.989Z,26.67
2018-04-27T17:30:43.615Z,26.01
2018-04-27T17:33:11.241Z,25.14
2018-04-27T17:35:38.744Z,24.17
2018-04-27T17:38:06.306Z,22.97
2018-04-27T17:40:33.852Z,22.19
2018-04-27T17:43:01.470Z,21.40
2018-04-27T17:45:28.982Z,20.78
2018-04-27T17:47:56.538Z,20.35
2018-04-27T17:50:24.099Z,19.97
2018-04-27T17:52:51.635Z,19.60
2018-04-27T17:55:19.231Z,19.32
2018-04-27T17:57:46.716Z,19.01
2018-04-27T18:00:14.287Z,18.83
2018-04-27T18:02:41.799Z,18.50
2018-04-27T18:05:09.307Z,18.32
2018-04-27T18:07:36.804Z,18.10
2018-04-27T18:10:04.337Z,17.98
2018-04-27T18:12:31.944Z,17.76
2018-04-27T18:14:59.476Z,17.64
2018-04-27T18:17:27.047Z,17.48
2018-04-27T18:19:54.551Z,17.37
2018-04-27T18:22:22.110Z,17.23
2018-04-27T18:24:49.624Z,17.12
2018-04-27T18:27:17.166Z,17.13
2018-04-27T18:29:44.747Z,17.01
2018-04-27T18:32:12.240Z,16.89
2018-04-27T18:34:40.009Z,16.78
2018-04-27T18:37:07.570Z,16.70
2018-04-27T18:39:35.108Z,16.68
2018-04-27T18:42:02.639Z,16.66
2018-04-27T18:44:30.157Z,16.63
2018-04-27T18:46:57.816Z,16.50
2018-04-27T18:49:25.379Z,16.43
2018-04-27T18:51:52.955Z,16.41
2018-04-27T18:54:20.488Z,16.42
2018-04-27T18:56:48.877Z,16.41
2018-04-27T18:59:16.412Z,16.35
2018-04-27T19:01:43.911Z,16.35
2018-04-27T19:04:11.462Z,16.24
2018-04-27T19:06:39.032Z,16.13
2018-04-27T19:09:06.583Z,16.16
2018-04-27T19:11:34.188Z,16.19
2018-04-27T19:14:01.732Z,16.20
2018-04-27T19:16:29.286Z,16.12
2018-04-27T19:18:56.815Z,16.04
2018-04-27T19:21:24.400Z,15.98
2018-04-27T19:23:52.672Z,15.98
2018-04-27T19:26:21.188Z,16.03
2018-04-27T19:28:48.714Z,16.03
2018-04-27T19:31:16.230Z,15.98
2018-04-27T19:33:43.883Z,16.01
2018-04-27T19:36:11.424Z,15.92
2018-04-27T19:38:39.092Z,15.90
2018-04-27T19:41:06.564Z,15.87
2018-04-27T19:43:34.053Z,15.83
2018-04-27T19:46:01.594Z,15.87
2018-04-27T19:48:29.889Z,15.92
2018-04-27T19:50:57.493Z,15.82
2018-04-27T19:53:25.025Z,15.82
2018-04-27T19:55:52.555Z,15.69
2018-04-27T19:58:20.091Z,15.67
2018-04-27T20:00:47.603Z,15.69
2018-04-27T20:03:15.136Z,15.59
2018-04-27T20:05:44.505Z,15.53
2018-04-27T20:08:12.038Z,15.37
2018-04-27T20:10:42.589Z,15.37
2018-04-27T20:13:12.998Z,15.45
2018-04-27T20:15:41.422Z,15.51
2018-04-27T20:18:21.509Z,15.45
2018-04-27T20:20:49.113Z,15.40
2018-04-27T20:23:17.524Z,15.41
2018-04-27T20:25:47.938Z,15.37
2018-04-27T20:28:15.527Z,15.26
2018-04-27T20:30:43.106Z,15.16
2018-04-27T20:33:14.508Z,15.10
2018-04-27T20:35:42.161Z,15.07
2018-04-27T20:38:15.275Z,15.04
2018-04-27T20:40:42.884Z,15.05
2018-04-27T20:43:12.228Z,15.07
2018-04-27T20:45:39.759Z,15.08
2018-04-27T20:51:03.394Z,14.96
2018-04-27T20:53:31.722Z,14.90
2018-04-27T20:56:06.133Z,14.92
2018-04-27T20:58:33.679Z,14.78
2018-04-27T21:01:01.189Z,14.69
2018-04-27T21:03:28.748Z,14.66
2018-04-27T21:05:56.314Z,14.66
2018-04-27T21:08:23.893Z,14.66
2018-04-27T21:10:51.415Z,14.66
2018-04-27T21:13:19.138Z,14.60
2018-04-27T21:15:46.648Z,14.51
2018-04-27T21:18:16.072Z,14.41
2018-04-27T21:20:43.648Z,14.47
2018-04-27T21:23:11.359Z,14.40
2018-04-27T21:25:38.884Z,14.42
2018-04-27T21:28:06.407Z,14.31
2018-04-27T21:30:33.907Z,14.22
2018-04-27T21:33:04.415Z,14.20
2018-04-27T21:35:34.763Z,14.13
2018-04-27T21:38:08.990Z,14.08
2018-04-27T21:40:36.507Z,14.11
2018-04-27T21:43:04.048Z,14.07
2018-04-27T21:45:31.946Z,14.03
2018-04-27T21:47:59.474Z,13.94
2018-04-27T21:50:26.972Z,13.92
2018-04-27T21:52:54.575Z,13.89
2018-04-27T21:55:22.091Z,13.92
2018-04-27T21:58:09.246Z,13.96
2018-04-27T22:00:36.828Z,13.93
2018-04-27T22:03:10.276Z,13.95
2018-04-27T22:05:50.522Z,14.01
2018-04-27T22:08:21.402Z,13.97
2018-04-27T22:10:49.717Z,13.94
2018-04-27T22:13:18.966Z,13.86
2018-04-27T22:15:46.514Z,13.87
2018-04-27T22:18:13.990Z,13.92
2018-04-27T22:20:47.297Z,13.91
2018-04-27T22:23:15.405Z,13.82
2018-04-27T22:25:43.756Z,13.82
2018-04-27T22:28:11.354Z,13.76
2018-04-27T22:30:39.630Z,13.68
2018-04-27T22:33:15.026Z,13.72
2018-04-27T22:35:47.313Z,13.71
2018-04-27T22:41:19.578Z,13.57
2018-04-27T22:43:58.179Z,13.51
2018-04-27T22:46:25.683Z,13.39
2018-04-27T22:49:03.097Z,13.39
2018-04-27T22:51:35.529Z,13.31
2018-04-27T22:54:04.727Z,13.25
2018-04-27T22:56:47.562Z,13.17
2018-04-27T22:59:15.082Z,13.21
2018-04-27T23:01:42.607Z,13.18
2018-04-27T23:04:10.173Z,13.12
2018-04-27T23:06:37.702Z,13.07
2018-04-27T23:09:05.271Z,12.99
2018-04-27T23:11:32.786Z,12.89
2018-04-27T23:14:10.258Z,12.83
2018-04-27T23:16:37.819Z,12.72
2018-04-27T23:19:08.259Z,12.65
2018-04-27T23:21:38.255Z,12.58
2018-04-27T23:24:06.560Z,12.47
2018-04-27T23:26:34.144Z,12.38
2018-04-27T23:29:01.659Z,12.32
2018-04-27T23:31:29.228Z,12.29
2018-04-27T23:33:56.776Z,12.19
2018-04-27T23:36:24.325Z,12.14
2018-04-27T23:38:51.855Z,12.12
2018-04-27T23:41:19.381Z,12.10
2018-04-27T23:43:46.896Z,12.13
2018-04-27T23:46:14.420Z,12.13
2018-04-27T23:48:41.972Z,12.14
2018-04-27T23:51:09.485Z,12.08
2018-04-27T23:53:37.973Z,11.99
2018-04-27T23:56:07.660Z,11.97
2018-04-27T23:58:35.232Z,11.98
